»·PEaware :: DFGCW KASE-KAPA

DFGCW :: KASE-KAPA

FLIGHT INFORMATION

Flight Status: Arrived
Operator: Unknown
More flights by this operator :: More flights under this callsign
Pilot: Klaus A. (15485)
Aircraft: PILATUS PC-12 EAGLE
(PC12)
More flights by this aircraft type
Origin: KASE Aspen-Pitkin Co/Sardy
United States
Destination: KAPA Centennial
United States
More flights between these airports :: More routes between these airports
Route: +LINDZ8 DBL TERRO LARKS8
File this flight plan on PilotEdge
Remarks: / G Newbie Custom Weather
Altitude:
(Current/Filed)
17,000ft
Speed:
(Current/Filed)
230kts
Departed: 21-Apr-18 08:02 AM
Arrived: 21-Apr-18 08:49 AM
Distance/Time
Traveled:
96nm/0:47
Distance/Time
To Go:
Arrived

Flight Plot

Page will automatically refresh every two minutes.

Flight plan parsing failed; only flown route is shown


Map Options




Map Legend


Flown Route
Filed Route
Departure Airport
Arrival Airport
Navaid (VOR, NDB)
Fix

Horizontal Profiles

Position Reports

Time Latitude Longitude Heading Altitude Ground
Speed
21-Apr-18 07:21 39.225499 -106.868045 251 7843ft 0kts
21-Apr-18 07:22 39.225499 -106.868045 251 7843ft 0kts
21-Apr-18 07:23 39.225499 -106.868045 251 7843ft 0kts
21-Apr-18 07:24 39.225499 -106.868045 251 7843ft 0kts
21-Apr-18 07:25 39.225499 -106.868045 251 7843ft 0kts
21-Apr-18 07:26 39.225499 -106.868045 251 7843ft 0kts
21-Apr-18 07:27 39.225499 -106.868045 251 7843ft 0kts
21-Apr-18 07:28 39.225499 -106.868045 251 7843ft 0kts
21-Apr-18 07:29 39.225499 -106.868045 251 7843ft 0kts
21-Apr-18 07:30 39.225499 -106.868045 251 7843ft 0kts
21-Apr-18 07:31 39.225499 -106.868045 251 7843ft 0kts
21-Apr-18 07:32 39.225499 -106.868045 251 7843ft 0kts
21-Apr-18 07:33 39.225499 -106.868045 251 7843ft 0kts
21-Apr-18 07:34 39.225499 -106.868045 251 7843ft 0kts
21-Apr-18 07:35 39.225499 -106.868045 251 7843ft 0kts
21-Apr-18 07:36 39.225499 -106.868045 251 7843ft 0kts
21-Apr-18 07:37 39.225499 -106.868045 251 7843ft 0kts
21-Apr-18 07:38 39.225499 -106.868045 251 7843ft 0kts
21-Apr-18 07:39 39.225499 -106.868045 251 7843ft 0kts
21-Apr-18 07:40 39.225499 -106.868045 251 7843ft 0kts
21-Apr-18 07:41 39.225499 -106.868045 251 7843ft 0kts
21-Apr-18 07:42 39.225499 -106.868045 251 7843ft 0kts
21-Apr-18 07:43 39.225499 -106.868045 251 7843ft 0kts
21-Apr-18 07:44 39.225499 -106.868045 251 7843ft 0kts
21-Apr-18 07:45 39.225499 -106.868045 251 7843ft 0kts
21-Apr-18 07:46 39.225499 -106.868045 251 7843ft 0kts
21-Apr-18 07:47 39.225499 -106.868045 251 7843ft 0kts
21-Apr-18 07:48 39.225499 -106.868045 251 7843ft 0kts
21-Apr-18 07:49 39.225499 -106.868045 251 7843ft 0kts
21-Apr-18 07:50 39.225499 -106.868045 251 7843ft 0kts
21-Apr-18 07:51 39.225499 -106.868045 251 7843ft 0kts
21-Apr-18 07:52 39.225499 -106.868045 251 7843ft 0kts
21-Apr-18 07:53 39.224867 -106.868339 166 7842ft 6kts
21-Apr-18 07:54 39.222754 -106.867379 163 7843ft 9kts
21-Apr-18 07:55 39.220087 -106.866132 159 7842ft 10kts
21-Apr-18 07:56 39.216740 -106.864626 159 7843ft 15kts
21-Apr-18 07:57 39.215154 -106.863949 180 7842ft 0kts
21-Apr-18 07:58 39.215154 -106.863949 180 7842ft 0kts
21-Apr-18 07:59 39.214738 -106.864471 258 7842ft 7kts
21-Apr-18 08:00 39.214864 -106.864917 325 7842ft 4kts
21-Apr-18 08:01 39.242268 -106.876653 353 8630ft 166kts
21-Apr-18 08:02 39.280206 -106.910622 280 10394ft 204kts
21-Apr-18 08:03 39.289923 -106.982284 279 12225ft 189kts
21-Apr-18 08:04 39.308990 -107.044163 316 13713ft 189kts
21-Apr-18 08:05 39.345727 -107.096968 311 14872ft 199kts
21-Apr-18 08:06 39.386867 -107.144270 6 15808ft 211kts
21-Apr-18 08:07 39.410729 -107.084798 69 16956ft 203kts
21-Apr-18 08:08 39.424797 -107.006833 79 17034ft 242kts
21-Apr-18 08:09 39.436387 -106.918041 81 17027ft 257kts
21-Apr-18 08:10 39.404061 -106.836199 118 17029ft 263kts
21-Apr-18 08:11 39.365894 -106.755356 122 16998ft 265kts
21-Apr-18 08:12 39.325221 -106.676021 123 16998ft 265kts
21-Apr-18 08:13 39.284175 -106.597371 123 16998ft 265kts
21-Apr-18 08:14 39.242524 -106.518032 122 16972ft 269kts
21-Apr-18 08:15 39.200267 -106.437696 122 16972ft 270kts
21-Apr-18 08:16 39.158040 -106.357662 122 16972ft 271kts
21-Apr-18 08:17 39.115746 -106.278434 123 16971ft 271kts
21-Apr-18 08:18 39.080356 -106.211858 123 16972ft 271kts
21-Apr-18 08:19 39.036858 -106.131406 132 16950ft 276kts
21-Apr-18 08:20 38.989840 -106.054211 124 16987ft 275kts
21-Apr-18 08:21 38.946018 -105.973942 123 16999ft 272kts
21-Apr-18 08:22 38.903534 -105.894884 117 16982ft 268kts
21-Apr-18 08:23 38.931706 -105.811584 52 16996ft 271kts
21-Apr-18 08:24 38.979599 -105.736795 50 16999ft 272kts
21-Apr-18 08:25 39.027581 -105.662595 49 16691ft 266kts
21-Apr-18 08:26 39.073677 -105.591174 47 15366ft 256kts
21-Apr-18 08:27 39.117095 -105.523847 49 14972ft 229kts
21-Apr-18 08:28 39.159092 -105.458486 48 14954ft 245kts
21-Apr-18 08:29 39.184304 -105.381471 88 15006ft 247kts
21-Apr-18 08:30 39.186335 -105.292885 90 15004ft 247kts
21-Apr-18 08:31 39.188380 -105.203436 91 14520ft 253kts
21-Apr-18 08:32 39.190408 -105.116091 86 13303ft 237kts
21-Apr-18 08:33 39.192336 -105.033011 86 12042ft 228kts
21-Apr-18 08:34 39.193959 -104.955182 87 11005ft 219kts
21-Apr-18 08:35 39.194876 -104.884750 87 10991ft 180kts
21-Apr-18 08:36 39.195664 -104.819147 87 10998ft 184kts
21-Apr-18 08:37 39.197372 -104.752875 67 10742ft 197kts
21-Apr-18 08:38 39.235443 -104.765727 297 9727ft 192kts
21-Apr-18 08:39 39.271489 -104.813854 326 8990ft 182kts
21-Apr-18 08:40 39.313436 -104.837120 352 9000ft 163kts
21-Apr-18 08:41 39.357764 -104.841386 358 9137ft 153kts
21-Apr-18 08:42 39.396735 -104.842888 356 8978ft 132kts
21-Apr-18 08:43 39.433480 -104.844567 356 8362ft 128kts
21-Apr-18 08:44 39.468657 -104.846177 356 7683ft 126kts
21-Apr-18 08:45 39.502837 -104.847740 356 7017ft 115kts
21-Apr-18 08:46 39.533479 -104.849192 355 6380ft 107kts
21-Apr-18 08:47 39.561407 -104.850422 354 5888ft 82kts
21-Apr-18 08:48 39.567845 -104.849547 346 5887ft 0kts
21-Apr-18 08:49 39.567846 -104.849547 346 5887ft 0kts
21-Apr-18 08:50 39.568209 -104.849351 10 5888ft 2kts
21-Apr-18 08:51 39.568210 -104.847923 82 5888ft 0kts
21-Apr-18 08:52 39.568003 -104.847480 297 5888ft 0kts
21-Apr-18 08:53 39.568003 -104.847480 297 5888ft 0kts
21-Apr-18 08:54 39.567988 -104.847466 357 5888ft 0kts
21-Apr-18 08:55 39.567988 -104.847466 357 5888ft 0kts
21-Apr-18 08:56 39.567988 -104.847466 357 5888ft 0kts
21-Apr-18 08:57 39.567988 -104.847466 357 5888ft 0kts
21-Apr-18 08:58 39.567988 -104.847466 357 5888ft 0kts
21-Apr-18 08:59 39.567988 -104.847466 357 5888ft 0kts
21-Apr-18 09:00 39.567988 -104.847466 357 5888ft 0kts
21-Apr-18 09:01 39.567988 -104.847466 357 5888ft 0kts
21-Apr-18 09:02 39.567988 -104.847466 357 5888ft 0kts

Navigation Log

Ident Type
Flight plan parsing failed, navigation log unavailable